Time;durP1;ratioP1;P1;durP2;ratioP2;P2;SDS_P1;SDS_P2;PMS_P1;PMS_P2;Temp;Humidity;BMP_temperature;BMP_pressure;BME280_temperature;BME280_humidity;BME280_pressure;Samples;Min_cycle;Max_cycle;Signal;HPM_P1;HPM_P2
2022/09/14 00:02:03;;;;;;;6.73;1.90;;;19.20;99.90;;;;;;5015523;28;20455;-85
2022/09/14 00:04:29;;;;;;;5.70;1.70;;;19.20;99.90;;;;;;5015069;28;20459;-85
2022/09/14 00:06:58;;;;;;;3.23;1.20;;;19.20;99.90;;;;;;5016207;28;20493;-82
2022/09/14 00:09:25;;;;;;;5.83;1.40;;;19.30;99.90;;;;;;5015379;28;20473;-84
2022/09/14 00:11:52;;;;;;;4.70;1.10;;;19.20;99.90;;;;;;5014537;28;20868;-84
2022/09/14 00:14:20;;;;;;;6.80;1.87;;;19.30;99.90;;;;;;5014662;28;20824;-84
2022/09/14 00:16:47;;;;;;;3.70;1.00;;;19.20;99.90;;;;;;5014454;28;20456;-84
2022/09/14 00:19:18;;;;;;;4.37;1.47;;;19.20;99.90;;;;;;5014581;28;20474;-84
2022/09/14 00:21:44;;;;;;;4.77;2.03;;;19.20;99.90;;;;;;5014217;28;20542;-84
2022/09/14 00:24:13;;;;;;;3.73;1.20;;;19.10;99.90;;;;;;5014280;28;20460;-84
2022/09/14 00:26:39;;;;;;;3.47;1.20;;;19.10;99.90;;;;;;5014625;28;20481;-83
2022/09/14 00:29:06;;;;;;;3.90;1.20;;;19.10;99.90;;;;;;5013766;28;20494;-84
2022/09/14 00:31:35;;;;;;;3.20;1.10;;;19.00;99.90;;;;;;5014253;28;20857;-84
2022/09/14 00:34:02;;;;;;;4.60;1.40;;;19.10;99.90;;;;;;5014201;28;20483;-84
2022/09/14 00:36:30;;;;;;;5.73;1.40;;;19.10;99.90;;;;;;5013545;28;20455;-84
2022/09/14 00:38:59;;;;;;;4.20;1.40;;;19.10;99.90;;;;;;5013677;28;20474;-84
2022/09/14 00:41:31;;;;;;;3.63;1.23;;;19.10;99.90;;;;;;5013365;28;20461;-84
2022/09/14 00:44:01;;;;;;;7.37;1.37;;;19.10;99.90;;;;;;4993710;28;20943;-84
2022/09/14 00:46:30;;;;;;;3.33;1.10;;;19.10;99.90;;;;;;4994548;28;20503;-84
2022/09/14 00:48:59;;;;;;;4.83;1.40;;;19.20;99.90;;;;;;5013122;28;20485;-83
2022/09/14 00:51:29;;;;;;;4.93;1.30;;;19.20;99.90;;;;;;5016656;28;20460;-83
2022/09/14 00:53:56;;;;;;;3.83;1.20;;;19.20;99.90;;;;;;5017120;28;20463;-84
2022/09/14 00:56:22;;;;;;;4.50;1.40;;;19.20;99.90;;;;;;5017435;28;20975;-84
2022/09/14 00:58:53;;;;;;;3.33;1.07;;;19.10;99.90;;;;;;5017415;28;20512;-83
2022/09/14 01:01:20;;;;;;;4.90;1.23;;;19.10;99.90;;;;;;5017532;28;20452;-85
2022/09/14 01:03:47;;;;;;;7.10;1.43;;;19.10;99.90;;;;;;5017167;28;20453;-84
2022/09/14 01:06:22;;;;;;;3.50;1.00;;;19.10;99.90;;;;;;5017797;28;20485;-84
2022/09/14 01:09:04;;;;;;;4.17;1.23;;;19.10;99.90;;;;;;5016221;28;20495;-84
2022/09/14 01:11:44;;;;;;;4.47;1.27;;;19.10;99.90;;;;;;5016056;28;20449;-84
2022/09/14 01:14:19;;;;;;;3.63;1.10;;;19.00;99.90;;;;;;5014531;28;20457;-85
2022/09/14 01:16:52;;;;;;;5.93;1.40;;;19.00;99.90;;;;;;5016079;28;20451;-84
2022/09/14 01:19:25;;;;;;;7.23;1.60;;;19.00;99.90;;;;;;5015869;28;20497;-84
2022/09/14 01:21:55;;;;;;;3.23;1.10;;;19.00;99.90;;;;;;5016638;28;20450;-83
2022/09/14 01:24:28;;;;;;;5.40;1.47;;;18.90;99.90;;;;;;5023968;28;20441;-86
2022/09/14 01:27:19;;;;;;;3.63;1.10;;;18.90;99.90;;;;;;5020240;28;20571;-85
2022/09/14 01:29:49;;;;;;;4.43;1.20;;;18.90;99.90;;;;;;5018749;28;20542;-85
2022/09/14 01:32:21;;;;;;;4.27;1.30;;;18.90;99.90;;;;;;5023627;28;20454;-84
2022/09/14 01:34:53;;;;;;;4.57;1.30;;;18.80;99.90;;;;;;5022090;28;20453;-84
2022/09/14 01:37:32;;;;;;;5.40;1.53;;;18.80;99.90;;;;;;5021239;28;20449;-84
2022/09/14 01:40:05;;;;;;;7.03;1.67;;;18.70;99.90;;;;;;5016157;28;20481;-84
2022/09/14 01:42:35;;;;;;;4.10;1.67;;;18.60;99.90;;;;;;5016873;28;20508;-83
2022/09/14 01:45:07;;;;;;;6.73;1.60;;;18.50;99.90;;;;;;5016491;28;20453;-84
2022/09/14 01:47:38;;;;;;;5.57;1.20;;;18.40;99.90;;;;;;5017382;28;20479;-83
2022/09/14 01:50:08;;;;;;;7.40;1.70;;;18.30;99.90;;;;;;5016374;28;20487;-84
2022/09/14 01:52:40;;;;;;;4.50;1.50;;;18.20;99.90;;;;;;5016910;28;20455;-82
2022/09/14 01:55:14;;;;;;;6.43;1.40;;;18.10;99.90;;;;;;5015391;28;20443;-85
2022/09/14 01:57:49;;;;;;;3.53;1.30;;;18.10;99.90;;;;;;5016876;28;20472;-82
2022/09/14 02:00:18;;;;;;;7.07;1.30;;;18.00;99.90;;;;;;5016566;28;20566;-85
2022/09/14 02:02:49;;;;;;;7.37;1.77;;;17.90;99.90;;;;;;5015732;28;20462;-84
2022/09/14 02:05:20;;;;;;;6.50;1.73;;;17.80;99.90;;;;;;5015728;28;20528;-84
2022/09/14 02:07:47;;;;;;;5.10;1.57;;;17.70;99.90;;;;;;5016847;28;20489;-83
2022/09/14 02:10:16;;;;;;;3.60;1.30;;;17.70;99.90;;;;;;5016190;28;20872;-84
2022/09/14 02:12:48;;;;;;;6.00;1.40;;;17.60;99.90;;;;;;5016169;28;20543;-84
2022/09/14 02:15:15;;;;;;;5.63;1.37;;;17.50;99.90;;;;;;5016248;28;20522;-84
2022/09/14 02:17:43;;;;;;;5.03;1.30;;;17.60;99.90;;;;;;5015435;28;20456;-83
2022/09/14 02:20:15;;;;;;;6.83;1.70;;;17.60;99.90;;;;;;5015318;28;20494;-84
2022/09/14 02:22:42;;;;;;;7.33;2.37;;;17.50;99.90;;;;;;5014762;28;20454;-85
2022/09/14 02:25:09;;;;;;;4.20;1.47;;;17.50;99.90;;;;;;5016365;28;21003;-83
2022/09/14 02:27:36;;;;;;;7.23;1.43;;;17.40;99.90;;;;;;5016674;28;20515;-83
2022/09/14 02:30:05;;;;;;;2.90;1.47;;;17.40;99.90;;;;;;5016332;28;20505;-84
2022/09/14 02:32:40;;;;;;;3.87;1.70;;;17.30;99.90;;;;;;5015891;28;20455;-83
2022/09/14 02:35:15;;;;;;;6.10;1.53;;;17.40;99.90;;;;;;5016637;28;20491;-83
2022/09/14 02:37:50;;;;;;;10.20;1.63;;;17.30;99.90;;;;;;5016666;28;20881;-85
2022/09/14 02:40:28;;;;;;;4.17;1.43;;;17.20;99.90;;;;;;4998477;28;20480;-85
2022/09/14 02:43:03;;;;;;;5.90;1.50;;;17.30;99.90;;;;;;5015329;28;20446;-84
2022/09/14 02:45:37;;;;;;;8.60;1.50;;;17.30;99.90;;;;;;5015909;28;21121;-85
2022/09/14 02:48:11;;;;;;;3.50;1.53;;;17.30;99.90;;;;;;5016454;28;20487;-85
2022/09/14 02:50:44;;;;;;;5.83;1.60;;;17.40;99.90;;;;;;5014086;28;20451;-84
2022/09/14 02:53:17;;;;;;;3.37;1.33;;;17.30;99.90;;;;;;5015203;28;20915;-84
2022/09/14 02:55:48;;;;;;;4.37;1.40;;;17.30;99.90;;;;;;5014200;28;20888;-84
2022/09/14 02:58:15;;;;;;;4.47;2.07;;;17.30;99.90;;;;;;5014223;28;20448;-85
2022/09/14 03:00:46;;;;;;;3.30;1.70;;;17.40;99.90;;;;;;5013354;28;20455;-85
2022/09/14 03:03:16;;;;;;;4.30;1.60;;;17.20;99.90;;;;;;5012894;28;20445;-85
2022/09/14 03:05:43;;;;;;;3.80;1.30;;;17.20;99.90;;;;;;5013841;28;20449;-85
2022/09/14 03:08:10;;;;;;;7.70;1.67;;;17.30;99.90;;;;;;5013811;28;20498;-85
2022/09/14 03:10:38;;;;;;;7.20;1.83;;;17.20;99.90;;;;;;5024033;28;20422;-85
2022/09/14 03:13:05;;;;;;;6.40;2.47;;;17.30;99.90;;;;;;5020610;28;20465;-84
2022/09/14 03:15:32;;;;;;;7.27;2.00;;;17.30;99.90;;;;;;5015365;28;20454;-84
2022/09/14 03:18:00;;;;;;;3.63;1.40;;;17.40;99.90;;;;;;5015855;28;20963;-85
2022/09/14 03:20:28;;;;;;;3.23;1.30;;;17.40;99.90;;;;;;5016548;28;20478;-84
2022/09/14 03:22:57;;;;;;;5.63;1.50;;;17.30;99.90;;;;;;5015470;28;20459;-85
2022/09/14 03:25:25;;;;;;;6.63;1.60;;;17.30;99.90;;;;;;5014116;28;20451;-84
2022/09/14 03:27:53;;;;;;;8.80;2.20;;;17.30;99.90;;;;;;5013629;28;20487;-85
2022/09/14 03:30:20;;;;;;;5.70;1.50;;;17.30;99.90;;;;;;4993610;28;20478;-86
2022/09/14 03:32:47;;;;;;;5.30;1.67;;;17.30;99.90;;;;;;4994230;28;20463;-85
2022/09/14 03:35:16;;;;;;;7.10;2.00;;;17.40;99.90;;;;;;5013494;28;20552;-85
2022/09/14 03:37:44;;;;;;;4.97;1.90;;;17.30;99.90;;;;;;5013410;28;20460;-84
2022/09/14 03:40:13;;;;;;;4.70;1.67;;;17.30;99.90;;;;;;5012049;28;20476;-84
2022/09/14 03:42:42;;;;;;;7.33;1.87;;;17.20;99.90;;;;;;5014048;28;20552;-86
2022/09/14 03:45:10;;;;;;;7.03;1.70;;;17.20;99.90;;;;;;5014023;28;20847;-84
2022/09/14 03:47:37;;;;;;;9.33;2.27;;;17.20;99.90;;;;;;5014245;28;20529;-85
2022/09/14 03:50:05;;;;;;;5.60;1.87;;;17.20;99.90;;;;;;5016019;28;20484;-84
2022/09/14 03:52:33;;;;;;;6.70;2.40;;;17.20;99.90;;;;;;5015956;28;20461;-84
2022/09/14 03:55:00;;;;;;;7.30;2.27;;;17.20;99.90;;;;;;5016595;28;20462;-85
2022/09/14 03:57:27;;;;;;;6.43;2.40;;;17.20;99.90;;;;;;5017018;28;20909;-85
2022/09/14 03:59:54;;;;;;;3.53;1.87;;;17.20;99.90;;;;;;5016746;28;20481;-85
2022/09/14 04:02:20;;;;;;;12.90;3.30;;;17.20;99.90;;;;;;5016660;28;20549;-85
2022/09/14 04:04:47;;;;;;;4.90;2.13;;;17.20;99.90;;;;;;5016159;28;20453;-86
2022/09/14 04:07:14;;;;;;;3.00;1.80;;;17.20;99.90;;;;;;5016483;28;20862;-85
2022/09/14 04:09:43;;;;;;;7.00;2.20;;;17.20;99.90;;;;;;5016339;28;20516;-85
2022/09/14 04:12:10;;;;;;;7.50;2.30;;;17.20;99.90;;;;;;5015186;28;20959;-85
2022/09/14 04:14:37;;;;;;;5.23;2.17;;;17.20;99.90;;;;;;5014263;28;20463;-84
2022/09/14 04:17:04;;;;;;;6.00;1.80;;;17.20;99.90;;;;;;5018849;28;20461;-85
2022/09/14 04:19:32;;;;;;;6.00;2.33;;;17.20;99.90;;;;;;5016868;28;20485;-85
2022/09/14 04:21:58;;;;;;;6.93;2.40;;;17.10;99.90;;;;;;5016766;28;20458;-85
2022/09/14 04:24:25;;;;;;;4.33;1.87;;;17.10;99.90;;;;;;5015673;28;21033;-84
2022/09/14 04:26:54;;;;;;;6.27;2.07;;;17.20;99.90;;;;;;5016477;28;20973;-85
2022/09/14 04:29:20;;;;;;;8.97;2.50;;;17.20;99.90;;;;;;5019989;28;21064;-85
2022/09/14 04:31:47;;;;;;;4.63;2.27;;;17.20;99.90;;;;;;5023613;28;20520;-85
2022/09/14 04:34:14;;;;;;;3.77;1.70;;;17.20;99.90;;;;;;5021292;28;20546;-84
2022/09/14 04:36:41;;;;;;;6.03;1.80;;;17.20;99.90;;;;;;5021509;28;20977;-85
2022/09/14 04:39:12;;;;;;;7.83;1.83;;;17.20;99.90;;;;;;5018450;28;20536;-86
2022/09/14 04:41:39;;;;;;;4.70;1.77;;;17.10;99.90;;;;;;5018332;28;20518;-86
2022/09/14 04:44:07;;;;;;;6.10;2.03;;;17.00;99.90;;;;;;5019899;28;20456;-85
2022/09/14 04:46:35;;;;;;;5.83;1.90;;;16.90;99.90;;;;;;5020462;28;20848;-84
2022/09/14 04:49:02;;;;;;;5.13;2.00;;;17.00;99.90;;;;;;5019535;28;20516;-85
2022/09/14 04:51:31;;;;;;;3.90;1.87;;;17.00;99.90;;;;;;5022773;28;20477;-85
2022/09/14 04:53:59;;;;;;;6.70;1.80;;;17.00;99.90;;;;;;5025314;28;20448;-87
2022/09/14 04:56:27;;;;;;;7.33;2.23;;;16.90;99.90;;;;;;5025637;28;20721;-87
2022/09/14 04:58:56;;;;;;;4.47;1.53;;;16.80;99.90;;;;;;5023196;28;20469;-85
2022/09/14 05:01:27;;;;;;;9.07;2.77;;;16.80;99.90;;;;;;5023569;28;20499;-85
2022/09/14 05:03:54;;;;;;;5.23;1.87;;;16.80;99.90;;;;;;5022606;28;20889;-84
2022/09/14 05:06:23;;;;;;;6.50;2.30;;;16.90;99.90;;;;;;5017249;28;20544;-86
2022/09/14 05:08:50;;;;;;;4.30;1.90;;;16.80;99.90;;;;;;5014700;28;20499;-87
2022/09/14 05:11:20;;;;;;;5.77;1.70;;;16.80;99.90;;;;;;5015047;28;20457;-86
2022/09/14 05:13:48;;;;;;;6.00;1.60;;;16.80;99.90;;;;;;5014467;28;20449;-85
2022/09/14 05:16:16;;;;;;;4.93;2.03;;;16.80;99.90;;;;;;5015888;28;20467;-85
2022/09/14 05:18:44;;;;;;;8.23;1.90;;;16.80;99.90;;;;;;5017544;28;20487;-86
2022/09/14 05:21:13;;;;;;;6.70;2.30;;;16.80;99.90;;;;;;5041723;28;20459;-85
2022/09/14 05:23:41;;;;;;;3.60;1.73;;;16.90;99.90;;;;;;5021630;28;20527;-86
2022/09/14 05:26:08;;;;;;;7.07;2.47;;;16.80;99.90;;;;;;5022608;28;20469;-85
2022/09/14 05:28:36;;;;;;;4.13;1.63;;;16.80;99.90;;;;;;5022203;28;20492;-86
2022/09/14 05:33:36;;;;;;;4.67;1.90;;;16.80;99.90;;;;;;5101000;22;20491;-79
2022/09/14 05:36:06;;;;;;;5.83;2.43;;;16.80;99.90;;;;;;5076745;28;20435;-80
2022/09/14 05:38:36;;;;;;;5.00;2.40;;;16.70;99.90;;;;;;5078930;28;20435;-80
2022/09/14 05:41:04;;;;;;;4.80;2.33;;;16.70;99.90;;;;;;5092817;28;20487;-79
2022/09/14 05:43:31;;;;;;;7.33;2.43;;;16.80;99.90;;;;;;5076363;28;20470;-80
2022/09/14 05:46:01;;;;;;;5.83;2.33;;;16.70;99.90;;;;;;5076872;28;20500;-78
2022/09/14 05:48:31;;;;;;;9.50;3.03;;;16.60;99.90;;;;;;5076780;28;20559;-80
2022/09/14 05:51:02;;;;;;;9.20;3.10;;;16.60;99.90;;;;;;5056213;28;20452;-78
2022/09/14 05:53:30;;;;;;;10.10;2.20;;;16.50;99.90;;;;;;5054394;28;20473;-79
2022/09/14 05:56:01;;;;;;;11.43;2.70;;;16.60;99.90;;;;;;5055461;28;20531;-78
2022/09/14 05:58:27;;;;;;;8.40;2.80;;;16.60;99.90;;;;;;5054567;28;20447;-79
2022/09/14 06:00:54;;;;;;;6.80;2.37;;;16.50;99.90;;;;;;5072581;28;20985;-79
2022/09/14 06:03:21;;;;;;;8.40;2.70;;;16.50;99.90;;;;;;5072170;28;20854;-79
2022/09/14 06:05:48;;;;;;;5.03;1.90;;;16.40;99.90;;;;;;5072893;28;20988;-79
2022/09/14 06:08:15;;;;;;;5.47;2.53;;;16.50;99.90;;;;;;5073199;28;20478;-79
2022/09/14 06:10:43;;;;;;;5.60;2.17;;;16.50;99.90;;;;;;5073589;28;20499;-79
2022/09/14 06:13:10;;;;;;;7.20;2.30;;;16.50;99.90;;;;;;5072266;28;20471;-79
2022/09/14 06:15:36;;;;;;;5.73;2.60;;;16.60;99.90;;;;;;5073398;28;20448;-79
2022/09/14 06:18:03;;;;;;;4.90;2.27;;;16.60;99.90;;;;;;5073596;28;20518;-79
2022/09/14 06:20:30;;;;;;;6.77;2.50;;;16.50;99.90;;;;;;5073177;28;20461;-79
2022/09/14 06:22:57;;;;;;;10.53;2.40;;;16.50;99.90;;;;;;5073074;28;20477;-79
2022/09/14 06:25:24;;;;;;;5.93;2.63;;;16.50;99.90;;;;;;5073968;28;20810;-79
2022/09/14 06:27:55;;;;;;;5.03;2.17;;;16.50;99.90;;;;;;5074059;28;20525;-80
2022/09/14 06:30:22;;;;;;;9.10;3.57;;;16.40;99.90;;;;;;5072905;28;20961;-79
2022/09/14 06:32:48;;;;;;;5.13;2.40;;;16.40;99.90;;;;;;5072296;28;20490;-78
2022/09/14 06:35:15;;;;;;;4.63;3.10;;;16.50;99.90;;;;;;5073259;28;20454;-78
2022/09/14 06:37:42;;;;;;;3.53;1.90;;;16.50;99.90;;;;;;5073927;28;20449;-79
2022/09/14 06:40:10;;;;;;;10.80;2.90;;;16.40;99.90;;;;;;5073525;28;20876;-80
2022/09/14 06:42:37;;;;;;;10.27;3.40;;;16.50;99.90;;;;;;5073806;28;20904;-79
2022/09/14 06:45:07;;;;;;;5.70;2.83;;;16.40;99.90;;;;;;5076450;28;20464;-79
2022/09/14 06:47:34;;;;;;;7.57;2.70;;;16.30;99.90;;;;;;5078610;28;20460;-80
2022/09/14 06:50:01;;;;;;;7.33;2.23;;;16.40;99.90;;;;;;5081071;28;20450;-79
2022/09/14 06:52:28;;;;;;;8.30;2.70;;;16.20;99.90;;;;;;5081741;28;20569;-80
2022/09/14 06:54:54;;;;;;;5.57;2.70;;;16.20;99.90;;;;;;5078475;28;20518;-80
2022/09/14 06:57:21;;;;;;;3.87;2.30;;;16.30;99.90;;;;;;5078409;28;20459;-79
2022/09/14 06:59:48;;;;;;;11.73;2.50;;;16.20;99.90;;;;;;5082005;28;20538;-80
2022/09/14 07:02:16;;;;;;;5.87;2.50;;;16.20;99.90;;;;;;5082037;28;20479;-79
2022/09/14 07:04:43;;;;;;;4.30;2.20;;;16.30;99.90;;;;;;5081655;28;20571;-79
2022/09/14 07:07:10;;;;;;;6.90;2.73;;;16.20;99.90;;;;;;5082180;28;20829;-81
2022/09/14 07:09:37;;;;;;;11.40;3.30;;;16.20;99.90;;;;;;5083365;28;20486;-79
2022/09/14 07:12:04;;;;;;;3.50;2.37;;;16.10;99.90;;;;;;5080954;28;20504;-79
2022/09/14 07:14:31;;;;;;;7.23;2.60;;;16.00;99.90;;;;;;5071601;28;20456;-82
2022/09/14 07:16:58;;;;;;;5.47;2.60;;;16.10;99.90;;;;;;5073118;28;20458;-79
2022/09/14 07:19:26;;;;;;;5.47;2.60;;;16.10;99.90;;;;;;5073056;28;20445;-80
2022/09/14 07:21:53;;;;;;;3.40;1.80;;;16.10;99.90;;;;;;5075816;28;20481;-80
2022/09/14 07:24:20;;;;;;;10.00;2.80;;;16.10;99.90;;;;;;5071437;28;20970;-80
2022/09/14 07:26:48;;;;;;;3.90;1.70;;;16.00;99.90;;;;;;5072372;28;20455;-80
2022/09/14 07:29:16;;;;;;;6.70;2.20;;;16.00;99.90;;;;;;5071404;28;20486;-77
2022/09/14 07:31:45;;;;;;;6.57;2.63;;;15.80;99.90;;;;;;5071559;28;20494;-80
2022/09/14 07:34:12;;;;;;;8.27;2.77;;;15.90;99.90;;;;;;5071738;28;20463;-78
2022/09/14 07:36:42;;;;;;;8.33;2.43;;;15.90;99.90;;;;;;5073404;28;20454;-80
2022/09/14 07:39:11;;;;;;;5.43;2.80;;;16.00;99.90;;;;;;5072134;28;20550;-77
2022/09/14 07:41:38;;;;;;;7.40;2.60;;;15.90;99.90;;;;;;5058645;28;20484;-78
2022/09/14 07:44:07;;;;;;;6.00;2.90;;;15.90;99.90;;;;;;5068815;28;20458;-78
2022/09/14 07:46:38;;;;;;;6.93;2.63;;;15.90;99.90;;;;;;5068477;28;20473;-79
2022/09/14 07:49:05;;;;;;;5.10;3.97;;;15.90;99.90;;;;;;5070646;28;20508;-80
2022/09/14 07:51:36;;;;;;;5.93;2.60;;;15.80;99.90;;;;;;5069966;28;20478;-79
2022/09/14 07:54:04;;;;;;;7.17;2.50;;;15.70;99.90;;;;;;5069064;28;20810;-79
2022/09/14 07:56:32;;;;;;;7.40;3.23;;;15.80;99.90;;;;;;5065244;28;20454;-80
2022/09/14 07:59:00;;;;;;;6.23;2.53;;;15.70;99.90;;;;;;5054442;28;20523;-79
2022/09/14 08:01:29;;;;;;;6.03;2.53;;;15.80;99.90;;;;;;5081833;28;20450;-80
2022/09/14 08:03:58;;;;;;;7.27;2.67;;;15.80;99.90;;;;;;5079476;28;20460;-79
2022/09/14 08:06:25;;;;;;;4.70;2.60;;;15.80;99.90;;;;;;5080918;28;20495;-79
2022/09/14 08:08:56;;;;;;;3.47;1.97;;;15.80;99.90;;;;;;5076947;28;20856;-79
2022/09/14 08:11:34;;;;;;;6.30;2.83;;;15.80;99.90;;;;;;5075396;28;20446;-79
2022/09/14 08:14:03;;;;;;;4.60;2.30;;;15.80;99.90;;;;;;5067355;28;20461;-80
2022/09/14 08:16:31;;;;;;;5.37;3.53;;;15.70;99.90;;;;;;5075045;28;20462;-79
2022/09/14 08:19:00;;;;;;;7.90;4.83;;;15.70;99.90;;;;;;5075715;28;20446;-78
2022/09/14 08:21:28;;;;;;;6.03;3.27;;;15.70;99.90;;;;;;5063731;28;20457;-77
2022/09/14 08:24:01;;;;;;;3.50;3.17;;;15.70;99.90;;;;;;5073930;28;20962;-80
2022/09/14 08:26:30;;;;;;;9.60;3.30;;;15.70;99.90;;;;;;5074956;28;20473;-79
2022/09/14 08:28:58;;;;;;;6.90;2.80;;;15.70;99.90;;;;;;5066857;28;20536;-78
2022/09/14 08:31:28;;;;;;;7.70;4.67;;;15.70;99.90;;;;;;5072744;28;20561;-77
2022/09/14 08:33:59;;;;;;;4.90;3.10;;;15.80;99.90;;;;;;5074063;28;20457;-78
2022/09/14 08:36:28;;;;;;;4.60;2.30;;;15.90;99.90;;;;;;5083516;28;21240;-79
2022/09/14 08:38:55;;;;;;;5.83;3.00;;;15.90;99.90;;;;;;5082749;28;20526;-80
2022/09/14 08:41:32;;;;;;;4.40;2.47;;;15.80;99.90;;;;;;5073463;28;20446;-79
2022/09/14 08:44:01;;;;;;;4.87;3.23;;;15.80;99.90;;;;;;5081856;28;20452;-80
2022/09/14 08:46:33;;;;;;;6.77;3.27;;;15.80;99.90;;;;;;5083473;28;20461;-80
2022/09/14 08:49:01;;;;;;;5.43;2.87;;;15.80;99.90;;;;;;5083081;28;20531;-79
2022/09/14 08:51:28;;;;;;;4.97;3.10;;;15.80;99.90;;;;;;5082451;28;20454;-79
2022/09/14 08:53:58;;;;;;;8.43;2.80;;;15.80;99.90;;;;;;5082458;28;20472;-80
2022/09/14 08:56:30;;;;;;;4.00;2.60;;;15.80;99.90;;;;;;5074943;28;20450;-78
2022/09/14 08:59:17;;;;;;;10.13;3.43;;;15.80;99.90;;;;;;5073839;28;20447;-80
2022/09/14 09:01:54;;;;;;;7.73;4.00;;;15.80;99.90;;;;;;5071659;28;20841;-79
2022/09/14 09:04:36;;;;;;;5.50;3.27;;;15.80;99.90;;;;;;5065381;28;20454;-77
2022/09/14 09:07:13;;;;;;;5.40;3.57;;;15.80;99.90;;;;;;5074910;28;20451;-80
2022/09/14 09:09:45;;;;;;;6.50;4.00;;;15.80;99.90;;;;;;5074625;28;20480;-78
2022/09/14 09:12:16;;;;;;;8.53;3.40;;;15.80;99.90;;;;;;5069969;28;20478;-80
2022/09/14 09:14:48;;;;;;;9.37;4.53;;;15.90;99.90;;;;;;5070569;28;20447;-80
2022/09/14 09:17:20;;;;;;;8.50;3.80;;;15.90;99.90;;;;;;5073153;28;20483;-79
2022/09/14 09:19:55;;;;;;;7.90;3.73;;;15.80;99.90;;;;;;5069370;28;20446;-80
2022/09/14 09:22:25;;;;;;;6.90;3.97;;;15.80;99.90;;;;;;5068757;28;20482;-79
2022/09/14 09:24:54;;;;;;;8.13;3.50;;;15.80;99.90;;;;;;5073820;28;20451;-78
2022/09/14 09:27:24;;;;;;;6.47;4.20;;;15.70;99.90;;;;;;5070123;28;20938;-78
2022/09/14 09:29:52;;;;;;;6.30;3.20;;;15.70;99.90;;;;;;5073520;28;20551;-78
2022/09/14 09:32:22;;;;;;;5.37;3.60;;;15.60;99.90;;;;;;5067105;28;20486;-78
2022/09/14 09:34:49;;;;;;;7.10;3.60;;;15.60;99.90;;;;;;5073263;28;20842;-81
2022/09/14 09:37:17;;;;;;;16.40;4.00;;;15.70;99.90;;;;;;5071149;28;20453;-79
2022/09/14 09:39:44;;;;;;;11.03;3.87;;;15.60;99.90;;;;;;5054561;28;20449;-79
2022/09/14 09:42:15;;;;;;;5.30;3.63;;;15.60;99.90;;;;;;5073288;28;20481;-80
2022/09/14 09:44:59;;;;;;;6.50;3.90;;;15.70;99.90;;;;;;5071181;28;20453;-78
2022/09/14 09:47:33;;;;;;;5.53;3.90;;;15.70;99.90;;;;;;5074580;28;20488;-79
2022/09/14 09:50:02;;;;;;;6.90;4.60;;;15.80;99.90;;;;;;5073797;28;20847;-79
2022/09/14 09:52:30;;;;;;;5.13;4.23;;;15.70;99.90;;;;;;5078741;28;20477;-79
2022/09/14 09:54:59;;;;;;;6.90;4.57;;;15.80;99.90;;;;;;5076260;28;20452;-80
2022/09/14 09:57:30;;;;;;;5.53;4.10;;;15.70;99.90;;;;;;5074770;28;20474;-78
2022/09/14 10:00:21;;;;;;;7.67;4.50;;;15.70;99.90;;;;;;5073308;28;20442;-78
2022/09/14 10:02:48;;;;;;;6.17;3.17;;;15.60;99.90;;;;;;5072310;28;20487;-78
2022/09/14 10:05:21;;;;;;;6.20;3.50;;;15.60;99.90;;;;;;5071389;28;20488;-79
2022/09/14 10:07:55;;;;;;;6.33;3.43;;;15.70;99.90;;;;;;5072249;28;20447;-78
2022/09/14 10:10:26;;;;;;;6.00;3.97;;;15.70;99.90;;;;;;5071813;28;20557;-79
2022/09/14 10:12:55;;;;;;;4.93;3.80;;;15.60;99.90;;;;;;5070766;28;20489;-78
2022/09/14 10:15:28;;;;;;;7.43;4.23;;;15.60;99.90;;;;;;5054216;28;20958;-79
2022/09/14 10:18:08;;;;;;;6.43;4.27;;;15.70;99.90;;;;;;5056487;28;20451;-78
2022/09/14 10:20:37;;;;;;;8.47;4.60;;;15.80;99.90;;;;;;5073007;28;20450;-80
2022/09/14 10:23:23;;;;;;;5.60;4.93;;;15.70;99.90;;;;;;5069365;28;20792;-81
2022/09/14 10:25:52;;;;;;;9.53;4.70;;;15.70;99.90;;;;;;5072508;28;20436;-80
2022/09/14 10:28:22;;;;;;;7.17;2.80;;;15.70;99.90;;;;;;5072623;28;20440;-78
2022/09/14 10:30:59;;;;;;;5.20;2.93;;;15.70;99.90;;;;;;5072278;28;20479;-79
2022/09/14 10:36:32;;;;;;;4.17;3.00;;;15.70;99.90;;;;;;5066703;28;20427;-79
2022/09/14 10:39:08;;;;;;;3.40;2.30;;;15.70;99.90;;;;;;5065377;28;20455;-79
2022/09/14 10:41:42;;;;;;;5.37;2.37;;;15.70;99.90;;;;;;5066644;28;20557;-81
2022/09/14 10:44:39;;;;;;;3.70;2.50;;;15.50;99.90;;;;;;5065708;28;21078;-81
2022/09/14 10:47:31;;;;;;;2.77;2.10;;;15.50;99.90;;;;;;5064570;28;20460;-82
2022/09/14 10:50:10;;;;;;;6.83;2.30;;;15.50;99.90;;;;;;5064613;28;20475;-80
2022/09/14 10:52:49;;;;;;;6.50;1.60;;;15.50;99.90;;;;;;5068978;28;20569;-79
2022/09/14 10:55:30;;;;;;;3.33;1.83;;;15.50;99.90;;;;;;5066718;28;20450;-80
2022/09/14 10:58:11;;;;;;;7.40;2.00;;;15.50;99.90;;;;;;5061428;28;20473;-80
2022/09/14 11:00:47;;;;;;;3.47;1.53;;;15.70;99.90;;;;;;5060509;28;20452;-80
2022/09/14 11:03:26;;;;;;;4.90;2.23;;;15.70;99.90;;;;;;5064720;28;20503;-80
2022/09/14 11:06:06;;;;;;;2.90;1.80;;;15.60;99.90;;;;;;5064431;28;20709;-79
2022/09/14 11:08:36;;;;;;;3.10;1.97;;;15.60;99.90;;;;;;5062183;28;20456;-78
2022/09/14 11:11:24;;;;;;;3.87;2.00;;;15.60;99.90;;;;;;5061034;28;20496;-79
2022/09/14 11:14:10;;;;;;;3.70;1.90;;;15.60;99.90;;;;;;5065007;28;20538;-79
2022/09/14 11:17:08;;;;;;;4.00;1.83;;;15.50;99.90;;;;;;5065202;28;20450;-79
2022/09/14 11:19:44;;;;;;;2.70;1.60;;;15.60;99.90;;;;;;5064967;28;20910;-79
2022/09/14 11:22:19;;;;;;;3.57;1.53;;;15.70;99.90;;;;;;5068408;28;20496;-80
2022/09/14 11:24:53;;;;;;;9.27;1.80;;;15.70;99.90;;;;;;5062600;28;20450;-78
2022/09/14 11:27:26;;;;;;;5.03;2.27;;;15.70;99.90;;;;;;5075179;28;20442;-79
2022/09/14 11:29:57;;;;;;;3.20;1.87;;;15.70;99.90;;;;;;5074769;28;21131;-82
2022/09/14 11:32:30;;;;;;;4.87;2.00;;;15.70;99.90;;;;;;5077633;28;20476;-80
2022/09/14 11:35:02;;;;;;;3.20;1.90;;;15.70;99.90;;;;;;5076102;28;20450;-79
2022/09/14 11:37:39;;;;;;;3.77;1.70;;;15.60;99.90;;;;;;5077389;28;20482;-81
2022/09/14 11:40:16;;;;;;;3.80;1.90;;;15.60;99.90;;;;;;5079054;28;20438;-80
2022/09/14 11:42:49;;;;;;;3.10;1.50;;;15.70;99.90;;;;;;5078422;28;20488;-79
2022/09/14 11:45:22;;;;;;;2.00;1.20;;;15.70;99.90;;;;;;5073953;28;20481;-78
2022/09/14 11:47:57;;;;;;;3.83;1.40;;;15.60;99.90;;;;;;5072682;28;20454;-81
2022/09/14 11:50:28;;;;;;;5.33;1.60;;;15.60;99.90;;;;;;5070222;28;20489;-81
2022/09/14 11:53:03;;;;;;;2.40;1.47;;;15.60;99.90;;;;;;5075861;28;20818;-80
2022/09/14 11:55:31;;;;;;;3.40;2.03;;;15.60;99.90;;;;;;5070227;28;20460;-80
2022/09/14 11:57:58;;;;;;;2.33;1.43;;;15.50;99.90;;;;;;5071793;28;20555;-81
2022/09/14 12:01:01;;;;;;;4.93;1.67;;;15.50;99.90;;;;;;5070493;28;20487;-80
2022/09/14 12:04:21;;;;;;;3.00;2.00;;;15.60;99.90;;;;;;5071062;28;20557;-80
2022/09/14 12:06:59;;;;;;;3.67;1.50;;;15.60;99.90;;;;;;5070419;28;21219;-79
2022/09/14 12:09:52;;;;;;;3.73;1.60;;;15.60;99.90;;;;;;5066753;28;20508;-81
2022/09/14 12:12:37;;;;;;;3.80;1.60;;;15.50;99.90;;;;;;5075509;28;20470;-79
2022/09/14 12:15:17;;;;;;;2.93;1.30;;;15.50;99.90;;;;;;5080132;28;20454;-78
2022/09/14 12:17:45;;;;;;;5.63;1.97;;;15.60;99.90;;;;;;5078945;28;20450;-80
2022/09/14 12:20:34;;;;;;;5.10;1.80;;;15.60;99.90;;;;;;5072256;28;20462;-79
2022/09/14 12:23:13;;;;;;;4.33;1.50;;;15.50;99.90;;;;;;5075597;28;20476;-82
2022/09/14 12:25:54;;;;;;;6.00;2.10;;;15.60;99.90;;;;;;5086425;28;20452;-80
2022/09/14 12:28:42;;;;;;;7.60;1.90;;;15.60;99.90;;;;;;5082095;28;20423;-81
2022/09/14 12:31:13;;;;;;;3.87;1.97;;;15.60;99.90;;;;;;5085309;28;20492;-82
2022/09/14 12:34:04;;;;;;;4.00;2.00;;;15.60;99.90;;;;;;5083767;28;20451;-82
2022/09/14 12:37:18;;;;;;;3.90;1.70;;;15.70;99.90;;;;;;5080146;28;20443;-80
2022/09/14 12:40:23;;;;;;;4.00;2.23;;;15.60;99.90;;;;;;5078655;28;20449;-79
2022/09/14 12:42:49;;;;;;;3.40;1.90;;;15.70;99.90;;;;;;5074931;28;20485;-79
2022/09/14 12:45:48;;;;;;;4.97;2.20;;;15.70;99.90;;;;;;5073551;28;20465;-80
2022/09/14 12:48:51;;;;;;;4.67;2.30;;;15.70;99.90;;;;;;5078237;28;21382;-78
2022/09/14 12:51:30;;;;;;;3.33;1.80;;;15.70;99.90;;;;;;5084297;28;20488;-79
2022/09/14 12:54:03;;;;;;;4.10;2.00;;;15.70;99.90;;;;;;5088108;28;20465;-80
2022/09/14 12:56:37;;;;;;;5.60;2.10;;;15.60;99.90;;;;;;5078989;28;20740;-80
2022/09/14 12:59:09;;;;;;;4.60;2.20;;;15.70;99.90;;;;;;5089560;28;20465;-81
2022/09/14 13:01:47;;;;;;;2.90;2.07;;;15.60;99.90;;;;;;5087647;28;20477;-80
2022/09/14 13:04:16;;;;;;;3.13;2.00;;;15.80;99.90;;;;;;5087012;28;20507;-79
2022/09/14 13:06:46;;;;;;;4.07;1.73;;;15.70;99.90;;;;;;5088665;28;20447;-78
2022/09/14 13:09:21;;;;;;;3.03;1.87;;;15.70;99.90;;;;;;5087409;28;20482;-79
2022/09/14 13:11:55;;;;;;;6.30;2.30;;;15.70;99.90;;;;;;5088292;28;20460;-81
2022/09/14 13:14:25;;;;;;;4.70;1.67;;;15.70;99.90;;;;;;5087908;28;20461;-80